Adams, Oklahoma
Current Conditions -  °F | °C
As of 4:15 PM on Saturday 25 Oct 2014 (Local Time) from KLBL Reporting Station
Clear Clear  
Wind Chill: 91°   Ceiling: Unl
Heat Index: 91°   Visibility: 10mi
Dew Point: 45°   Wind: 13mph
Humidity: 20%   Direction: 200°SSW
Pressure: 30.03"   Gusts: 18mph
Location:  36.76°N, 101.08°W
Report Text: KLBL 252115Z AUTO 20011G16KT 10SM CLR 33/07 A3003 RMK AO1
Loading
Personal Weather Stations






























Interactive Weather Map
Tropical Storm Tracking
New forecast layout! Learn more

10-Day Weather Forecast

Advertisements
Track Severe Weather on mobile